Time;durP1;ratioP1;P1;durP2;ratioP2;P2;SDS_P1;SDS_P2;PMS_P1;PMS_P2;Temp;Humidity;BMP_temperature;BMP_pressure;BME280_temperature;BME280_humidity;BME280_pressure;Samples;Min_cycle;Max_cycle;Signal;HPM_P1;HPM_P2
2022/11/22 00:02:06;;;;;;;12.70;10.43;;;2.00;99.90;;;;;;5053677;28;20963;-47
2022/11/22 00:04:34;;;;;;;11.23;10.23;;;2.20;99.90;;;;;;5053593;28;20445;-48
2022/11/22 00:07:01;;;;;;;10.23;9.17;;;2.10;99.90;;;;;;5053793;28;20448;-47
2022/11/22 00:09:28;;;;;;;11.70;10.20;;;2.00;99.90;;;;;;5053503;28;20462;-47
2022/11/22 00:11:55;;;;;;;11.03;9.93;;;1.90;99.90;;;;;;5053391;28;20603;-47
2022/11/22 00:14:22;;;;;;;10.63;9.20;;;2.00;99.90;;;;;;5052976;28;20484;-47
2022/11/22 00:16:48;;;;;;;10.47;9.30;;;2.00;99.90;;;;;;5053696;28;20442;-46
2022/11/22 00:19:15;;;;;;;9.97;8.23;;;1.60;99.90;;;;;;5053924;28;20760;-47
2022/11/22 00:21:44;;;;;;;10.70;8.53;;;1.60;99.90;;;;;;5052967;28;20442;-47
2022/11/22 00:24:12;;;;;;;10.30;8.17;;;1.90;99.90;;;;;;5053098;28;20772;-47
2022/11/22 00:26:39;;;;;;;7.67;6.90;;;1.80;99.90;;;;;;5053244;28;20441;-48
2022/11/22 00:29:06;;;;;;;9.13;7.50;;;1.90;99.90;;;;;;5053226;28;20476;-47
2022/11/22 00:31:33;;;;;;;8.13;6.93;;;1.60;99.90;;;;;;5052508;28;20503;-47
2022/11/22 00:34:00;;;;;;;15.60;11.20;;;1.60;99.90;;;;;;5052702;28;20478;-47
2022/11/22 00:36:27;;;;;;;13.50;8.93;;;1.70;99.90;;;;;;5053314;28;20448;-49
2022/11/22 00:38:55;;;;;;;10.27;7.80;;;2.00;99.90;;;;;;5052820;28;20462;-47
2022/11/22 00:41:22;;;;;;;8.13;7.33;;;1.80;99.90;;;;;;5052815;28;20961;-47
2022/11/22 00:43:49;;;;;;;9.27;8.30;;;1.70;99.90;;;;;;5052306;28;21077;-47
2022/11/22 00:46:15;;;;;;;11.30;7.70;;;1.70;99.90;;;;;;5053211;28;20452;-49
2022/11/22 00:48:42;;;;;;;8.70;7.40;;;1.60;99.90;;;;;;5052824;28;20490;-47
2022/11/22 00:51:09;;;;;;;12.00;8.00;;;1.50;99.90;;;;;;5052615;28;20442;-47
2022/11/22 00:53:36;;;;;;;9.67;7.07;;;1.70;99.90;;;;;;5052322;28;20569;-48
2022/11/22 00:56:04;;;;;;;8.90;7.13;;;1.70;99.90;;;;;;5052671;28;20939;-47
2022/11/22 00:58:31;;;;;;;8.57;7.67;;;1.90;99.90;;;;;;5052217;28;20495;-47
2022/11/22 01:00:58;;;;;;;8.03;7.23;;;2.00;99.90;;;;;;5052371;28;20452;-47
2022/11/22 01:03:25;;;;;;;9.13;7.13;;;1.80;99.90;;;;;;5052131;28;20437;-47
2022/11/22 01:05:52;;;;;;;8.27;7.47;;;1.80;99.90;;;;;;5052880;28;20879;-47
2022/11/22 01:08:19;;;;;;;8.67;7.73;;;1.90;99.90;;;;;;5052273;28;21013;-48
2022/11/22 01:10:46;;;;;;;8.27;7.23;;;1.90;99.90;;;;;;5052456;28;20452;-47
2022/11/22 01:13:14;;;;;;;8.20;6.93;;;2.00;99.90;;;;;;5051559;28;20525;-47
2022/11/22 01:15:41;;;;;;;8.23;7.40;;;2.10;99.90;;;;;;5052199;28;20438;-47
2022/11/22 01:18:08;;;;;;;7.27;6.37;;;2.20;99.90;;;;;;5052291;28;20927;-47
2022/11/22 01:20:34;;;;;;;8.33;7.00;;;2.40;99.90;;;;;;5051942;28;20445;-47
2022/11/22 01:23:01;;;;;;;8.53;7.70;;;2.60;99.90;;;;;;5051833;28;20446;-47
2022/11/22 01:25:28;;;;;;;8.07;7.13;;;2.50;99.90;;;;;;5052236;28;20450;-48
2022/11/22 01:27:55;;;;;;;6.93;6.33;;;2.60;99.90;;;;;;5052002;28;20434;-47
2022/11/22 01:30:23;;;;;;;8.37;6.30;;;2.70;99.90;;;;;;5051874;28;20482;-47
2022/11/22 01:32:50;;;;;;;8.80;6.97;;;2.70;99.90;;;;;;5051664;28;20442;-47
2022/11/22 01:35:17;;;;;;;11.00;9.80;;;2.70;99.90;;;;;;5051880;28;20470;-49
2022/11/22 01:37:43;;;;;;;12.30;10.97;;;2.70;99.90;;;;;;5052199;28;20873;-48
2022/11/22 01:40:11;;;;;;;11.27;9.67;;;2.70;99.90;;;;;;5052030;28;20800;-47
2022/11/22 01:42:48;;;;;;;8.47;7.00;;;2.60;99.90;;;;;;5050741;28;21026;-47
2022/11/22 01:45:43;;;;;;;12.00;5.87;;;2.70;99.90;;;;;;5051741;28;20816;-46
2022/11/22 01:48:36;;;;;;;7.00;6.30;;;2.70;99.90;;;;;;5051880;28;20451;-47
2022/11/22 01:51:09;;;;;;;6.67;5.80;;;2.70;99.90;;;;;;5051519;28;20452;-47
2022/11/22 01:53:38;;;;;;;10.47;9.43;;;2.50;99.90;;;;;;5050982;28;20473;-47
2022/11/22 01:56:09;;;;;;;9.60;8.00;;;2.50;99.90;;;;;;5051811;28;20441;-48
2022/11/22 01:58:39;;;;;;;7.87;6.17;;;2.50;99.90;;;;;;5051564;28;20524;-47
2022/11/22 02:01:08;;;;;;;6.83;6.23;;;2.30;99.90;;;;;;5051397;28;20450;-50
2022/11/22 02:03:39;;;;;;;7.00;5.80;;;2.20;99.90;;;;;;5051034;28;20878;-47
2022/11/22 02:06:07;;;;;;;6.13;5.50;;;2.30;99.90;;;;;;5051319;28;20533;-47
2022/11/22 02:08:39;;;;;;;7.03;6.20;;;2.40;99.90;;;;;;5050903;28;20541;-47
2022/11/22 02:11:08;;;;;;;7.30;6.30;;;2.20;99.90;;;;;;5051647;28;20533;-47
2022/11/22 02:13:39;;;;;;;8.33;6.63;;;2.40;99.90;;;;;;5050772;28;20475;-50
2022/11/22 02:16:09;;;;;;;7.37;6.30;;;2.40;99.90;;;;;;5051454;28;20442;-47
2022/11/22 02:18:36;;;;;;;7.03;6.43;;;2.50;99.90;;;;;;5051413;28;20461;-47
2022/11/22 02:21:04;;;;;;;6.80;6.00;;;2.40;99.90;;;;;;5050999;28;20532;-49
2022/11/22 02:23:39;;;;;;;7.07;6.20;;;2.30;99.90;;;;;;5050738;28;20456;-47
2022/11/22 02:26:08;;;;;;;8.80;6.07;;;2.30;99.90;;;;;;5051109;28;20441;-48
2022/11/22 02:28:37;;;;;;;6.43;5.60;;;2.30;99.90;;;;;;5052073;28;20565;-47
2022/11/22 02:31:04;;;;;;;7.47;6.77;;;2.40;99.90;;;;;;5050811;28;20529;-47
2022/11/22 02:33:31;;;;;;;7.33;6.63;;;2.40;99.90;;;;;;5050498;28;20448;-47
2022/11/22 02:35:59;;;;;;;7.47;6.00;;;2.50;99.90;;;;;;5051349;28;20524;-48
2022/11/22 02:38:30;;;;;;;6.23;5.63;;;2.40;99.90;;;;;;5051542;28;20885;-47
2022/11/22 02:41:01;;;;;;;6.60;5.90;;;2.50;99.90;;;;;;5050921;28;20453;-47
2022/11/22 02:43:32;;;;;;;7.43;6.50;;;2.50;99.90;;;;;;5050398;28;20532;-47
2022/11/22 02:46:03;;;;;;;7.47;6.60;;;2.30;99.90;;;;;;5050928;28;21002;-48
2022/11/22 02:48:30;;;;;;;7.57;6.47;;;2.30;99.90;;;;;;5051128;28;20465;-47
2022/11/22 02:50:57;;;;;;;7.03;6.43;;;2.30;99.90;;;;;;5051106;28;20536;-48
2022/11/22 02:53:24;;;;;;;8.00;6.60;;;2.30;99.90;;;;;;5050796;28;20442;-47
2022/11/22 02:55:52;;;;;;;7.23;6.20;;;2.40;99.90;;;;;;5054857;28;20438;-47
2022/11/22 02:58:18;;;;;;;7.30;6.37;;;2.50;99.90;;;;;;5054893;28;20556;-48
2022/11/22 03:00:47;;;;;;;8.80;6.60;;;2.50;99.90;;;;;;5055019;28;20442;-47
2022/11/22 03:03:13;;;;;;;6.50;5.83;;;2.60;99.90;;;;;;5054344;28;20442;-47
2022/11/22 03:05:40;;;;;;;8.37;6.20;;;2.70;99.90;;;;;;5054562;28;20444;-47
2022/11/22 03:08:07;;;;;;;7.67;6.93;;;2.70;99.90;;;;;;5054695;28;20533;-47
2022/11/22 03:10:34;;;;;;;8.10;7.30;;;2.50;99.90;;;;;;5054726;28;20540;-48
2022/11/22 03:13:01;;;;;;;8.37;7.30;;;2.40;99.90;;;;;;5054435;28;20469;-47
2022/11/22 03:15:28;;;;;;;8.37;7.53;;;2.50;99.90;;;;;;5054198;28;20534;-48
2022/11/22 03:17:58;;;;;;;7.20;6.33;;;2.60;99.90;;;;;;5055251;28;20438;-47
2022/11/22 03:20:25;;;;;;;8.70;7.30;;;2.60;99.90;;;;;;5054449;28;20541;-47
2022/11/22 03:22:52;;;;;;;7.30;6.60;;;2.50;99.90;;;;;;5054700;28;20442;-45
2022/11/22 03:25:19;;;;;;;7.80;7.00;;;2.50;99.90;;;;;;5054207;28;20525;-51
2022/11/22 03:27:46;;;;;;;7.10;5.70;;;2.60;99.90;;;;;;5054605;28;20489;-47
2022/11/22 03:30:13;;;;;;;8.50;7.00;;;2.60;99.90;;;;;;5054427;28;20470;-47
2022/11/22 03:32:40;;;;;;;8.60;7.80;;;2.70;99.90;;;;;;5054251;28;20532;-47
2022/11/22 03:35:10;;;;;;;12.07;8.10;;;2.60;99.90;;;;;;5053673;28;20479;-47
2022/11/22 03:37:36;;;;;;;9.27;8.20;;;2.60;99.90;;;;;;5054430;28;20845;-47
2022/11/22 03:40:04;;;;;;;9.63;8.00;;;2.60;99.90;;;;;;5054040;28;20880;-47
2022/11/22 03:42:31;;;;;;;8.63;7.53;;;2.40;99.90;;;;;;5054165;28;20880;-47
2022/11/22 03:44:58;;;;;;;10.00;8.27;;;2.30;99.90;;;;;;5053841;28;20525;-47
2022/11/22 03:47:24;;;;;;;9.30;6.90;;;2.30;99.90;;;;;;5053628;28;20443;-50
2022/11/22 03:49:51;;;;;;;10.63;8.70;;;2.30;99.90;;;;;;5053888;28;20464;-48
2022/11/22 03:52:19;;;;;;;9.60;7.40;;;2.30;99.90;;;;;;5054256;28;20817;-47
2022/11/22 03:54:46;;;;;;;9.70;7.80;;;2.30;99.90;;;;;;5053395;28;20476;-47
2022/11/22 03:57:14;;;;;;;8.03;6.70;;;2.20;99.90;;;;;;5053838;28;20441;-48
2022/11/22 03:59:41;;;;;;;8.97;7.60;;;2.30;99.90;;;;;;5054124;28;20724;-47
2022/11/22 04:02:08;;;;;;;9.17;8.27;;;2.50;99.90;;;;;;5053262;28;20524;-47
2022/11/22 04:04:35;;;;;;;8.57;7.67;;;2.50;99.90;;;;;;5053182;28;20442;-47
2022/11/22 04:07:01;;;;;;;9.13;8.23;;;2.60;99.90;;;;;;5053141;28;20541;-47
2022/11/22 04:09:30;;;;;;;9.47;8.47;;;2.70;99.90;;;;;;5053626;28;21209;-48
2022/11/22 04:11:56;;;;;;;9.37;8.30;;;2.80;99.90;;;;;;5053310;28;20448;-47
2022/11/22 04:17:07;;;;;;;11.23;8.40;;;2.70;99.90;;;;;;5053493;28;20440;-47
2022/11/22 04:19:34;;;;;;;10.23;7.27;;;2.50;99.90;;;;;;5053549;28;20561;-47
2022/11/22 04:22:00;;;;;;;8.40;7.40;;;2.40;99.90;;;;;;5052867;28;20822;-49
2022/11/22 04:27:12;;;;;;;7.77;6.57;;;2.60;99.90;;;;;;5053209;28;20329;-49
2022/11/22 04:29:39;;;;;;;13.00;8.10;;;2.70;99.90;;;;;;5053167;28;20470;-49
2022/11/22 04:34:50;;;;;;;7.73;6.73;;;2.10;99.90;;;;;;5052902;28;20997;-47
2022/11/22 04:37:17;;;;;;;7.93;7.23;;;2.00;99.90;;;;;;5053024;28;20446;-47
2022/11/22 04:39:44;;;;;;;9.97;8.73;;;2.30;99.90;;;;;;5053253;28;20583;-49
2022/11/22 04:44:56;;;;;;;8.30;7.13;;;2.60;99.90;;;;;;5052487;28;20965;-49
2022/11/22 04:52:56;;;;;;;8.70;7.50;;;2.70;99.90;;;;;;5052810;28;20492;-48
2022/11/22 04:55:23;;;;;;;7.57;6.87;;;2.70;99.90;;;;;;5052423;28;21030;-47
2022/11/22 04:57:51;;;;;;;7.20;6.50;;;2.80;99.90;;;;;;5052680;28;20988;-48
2022/11/22 05:00:18;;;;;;;9.90;8.40;;;2.70;99.90;;;;;;5052502;28;20463;-47
2022/11/22 05:02:45;;;;;;;9.13;7.87;;;2.70;99.90;;;;;;5052221;28;20532;-50
2022/11/22 05:05:12;;;;;;;7.63;6.97;;;2.70;99.90;;;;;;5052364;28;20804;-48
2022/11/22 05:07:39;;;;;;;8.60;7.17;;;2.70;99.90;;;;;;5052389;28;20896;-47
2022/11/22 05:10:06;;;;;;;8.23;7.33;;;2.80;99.90;;;;;;5052451;28;20459;-51
2022/11/22 05:12:33;;;;;;;9.83;8.83;;;2.80;99.90;;;;;;5044077;28;20521;-47
2022/11/22 05:15:01;;;;;;;8.57;7.57;;;2.80;99.90;;;;;;5052297;28;20465;-50
2022/11/22 05:17:28;;;;;;;9.27;7.23;;;2.70;99.90;;;;;;5052180;28;20442;-50
2022/11/22 05:19:55;;;;;;;8.90;6.90;;;2.80;99.90;;;;;;5052370;28;20544;-47
2022/11/22 05:23:53;;;;;;;8.57;7.67;;;2.90;99.90;;;;;;5051948;28;20536;-47
2022/11/22 05:25:08;;;;;;;10.47;8.20;;;2.80;99.90;;;;;;5051590;28;20430;-47
2022/11/22 05:27:35;;;;;;;9.60;7.10;;;2.90;99.90;;;;;;5051902;28;20442;-48
2022/11/22 05:30:05;;;;;;;10.07;8.00;;;2.90;99.90;;;;;;5051618;28;20990;-48
2022/11/22 05:32:32;;;;;;;11.33;8.23;;;2.90;99.90;;;;;;5032193;28;20533;-47
2022/11/22 05:34:59;;;;;;;9.63;8.63;;;2.80;99.90;;;;;;5038853;28;20563;-51
2022/11/22 05:37:26;;;;;;;10.70;9.00;;;2.70;99.90;;;;;;5052024;28;20442;-47
2022/11/22 05:39:53;;;;;;;10.03;8.93;;;2.80;99.90;;;;;;5051392;28;20461;-47
2022/11/22 05:42:20;;;;;;;10.07;9.17;;;2.80;99.90;;;;;;5051739;28;20446;-49
2022/11/22 05:44:47;;;;;;;12.50;11.10;;;2.80;99.90;;;;;;5051725;28;20529;-48
2022/11/22 05:47:15;;;;;;;10.27;9.20;;;2.80;99.90;;;;;;5051332;28;20530;-47
2022/11/22 05:49:44;;;;;;;11.07;8.83;;;2.70;99.90;;;;;;5051528;28;20466;-47
2022/11/22 05:52:11;;;;;;;10.93;9.83;;;2.80;99.90;;;;;;5051565;28;20822;-47
2022/11/22 05:54:38;;;;;;;11.60;10.40;;;2.80;99.90;;;;;;5051523;28;21100;-47
2022/11/22 05:57:05;;;;;;;11.73;9.33;;;2.80;99.90;;;;;;5050828;28;20446;-49
2022/11/22 05:59:32;;;;;;;9.83;8.83;;;2.70;99.90;;;;;;5051610;28;20470;-47
2022/11/22 06:01:59;;;;;;;15.80;14.30;;;2.80;99.90;;;;;;5051373;28;20448;-47
2022/11/22 06:04:27;;;;;;;14.30;13.00;;;2.90;99.90;;;;;;5051350;28;20444;-47
2022/11/22 06:06:54;;;;;;;12.53;11.30;;;2.80;99.90;;;;;;5051376;28;20524;-49
2022/11/22 06:09:21;;;;;;;9.57;8.63;;;2.70;99.90;;;;;;5051235;28;20548;-47
2022/11/22 06:11:48;;;;;;;9.70;8.80;;;2.80;99.90;;;;;;5051207;28;20569;-47
2022/11/22 06:14:15;;;;;;;10.37;8.80;;;2.90;99.90;;;;;;5050988;28;20544;-48
2022/11/22 06:16:42;;;;;;;10.30;9.30;;;3.00;99.90;;;;;;5051324;28;21033;-50
2022/11/22 06:19:09;;;;;;;8.60;7.70;;;3.00;99.90;;;;;;5051209;28;20461;-47
2022/11/22 06:21:37;;;;;;;10.00;8.20;;;3.00;99.90;;;;;;5049766;28;20460;-47
2022/11/22 06:24:04;;;;;;;11.30;10.00;;;3.00;99.90;;;;;;5050306;28;20473;-47
2022/11/22 06:26:31;;;;;;;17.20;11.63;;;3.10;99.90;;;;;;5049787;28;20441;-46
2022/11/22 06:28:58;;;;;;;13.83;11.70;;;3.30;99.90;;;;;;5049912;28;20841;-47
2022/11/22 06:31:26;;;;;;;12.10;10.93;;;3.20;99.90;;;;;;5050756;28;20456;-51
2022/11/22 06:33:54;;;;;;;16.00;8.67;;;3.10;99.90;;;;;;5050875;28;20529;-48
2022/11/22 06:36:22;;;;;;;10.50;9.60;;;3.00;99.90;;;;;;5051091;28;20849;-47
2022/11/22 06:38:51;;;;;;;10.50;9.43;;;2.90;99.90;;;;;;5050698;28;21082;-48
2022/11/22 06:41:20;;;;;;;11.20;10.00;;;3.00;99.90;;;;;;5050684;28;20533;-47
2022/11/22 06:43:48;;;;;;;11.60;10.40;;;3.10;99.90;;;;;;5050769;28;20481;-48
2022/11/22 06:46:17;;;;;;;12.70;11.50;;;3.10;99.90;;;;;;5051089;28;20518;-49
2022/11/22 06:48:44;;;;;;;11.70;10.63;;;3.20;99.90;;;;;;5051224;28;20466;-48
2022/11/22 06:51:13;;;;;;;12.47;11.30;;;3.20;99.90;;;;;;5051052;28;20887;-49
2022/11/22 06:53:40;;;;;;;13.17;11.87;;;3.10;99.90;;;;;;5050796;28;20530;-49
2022/11/22 06:56:10;;;;;;;13.23;11.30;;;3.20;99.90;;;;;;5050474;28;20485;-49
2022/11/22 06:58:37;;;;;;;13.37;10.73;;;3.20;99.90;;;;;;5050825;28;20469;-52
2022/11/22 07:01:05;;;;;;;12.80;11.43;;;3.30;99.90;;;;;;5050996;28;20533;-49
2022/11/22 07:03:34;;;;;;;11.97;10.77;;;3.30;99.90;;;;;;5050474;28;20447;-48
2022/11/22 07:06:01;;;;;;;13.17;11.13;;;3.20;99.90;;;;;;5050971;28;20440;-51
2022/11/22 07:08:28;;;;;;;11.40;10.20;;;3.20;99.90;;;;;;5050675;28;20472;-49
2022/11/22 07:10:54;;;;;;;12.33;10.27;;;3.30;99.90;;;;;;5050861;28;20462;-48
2022/11/22 07:13:23;;;;;;;12.40;11.10;;;3.30;99.90;;;;;;5050704;28;20965;-51
2022/11/22 07:15:56;;;;;;;12.60;11.53;;;3.30;99.90;;;;;;5050599;28;20483;-50
2022/11/22 07:18:24;;;;;;;12.90;11.50;;;3.30;99.90;;;;;;5051044;28;20880;-48
2022/11/22 07:20:50;;;;;;;12.50;10.50;;;3.40;99.90;;;;;;5051006;28;20475;-48
2022/11/22 07:23:17;;;;;;;12.47;10.53;;;3.40;99.90;;;;;;5050560;28;20521;-49
2022/11/22 07:25:45;;;;;;;10.80;9.90;;;3.40;99.90;;;;;;5050941;28;20437;-48
2022/11/22 07:28:12;;;;;;;12.23;10.50;;;3.40;99.90;;;;;;5050029;28;21005;-48
2022/11/22 07:30:40;;;;;;;12.00;9.57;;;3.20;99.90;;;;;;5050907;28;20449;-51
2022/11/22 07:33:09;;;;;;;10.67;9.57;;;3.30;99.90;;;;;;5050418;28;20446;-51
2022/11/22 07:35:36;;;;;;;9.73;8.73;;;3.20;99.90;;;;;;5050492;28;20614;-49
2022/11/22 07:38:03;;;;;;;10.57;9.40;;;3.10;99.90;;;;;;5050489;28;21022;-48
2022/11/22 07:40:30;;;;;;;11.53;10.33;;;3.10;99.90;;;;;;5051308;28;20780;-48
2022/11/22 07:42:57;;;;;;;11.40;10.30;;;3.20;99.90;;;;;;5053951;28;20541;-48
2022/11/22 07:45:24;;;;;;;13.33;10.63;;;3.30;99.90;;;;;;5054273;28;20449;-50
2022/11/22 07:47:52;;;;;;;10.10;9.20;;;3.30;99.90;;;;;;5054039;28;20441;-48
2022/11/22 07:50:19;;;;;;;12.23;10.90;;;3.20;99.90;;;;;;5054066;28;20552;-48
2022/11/22 07:52:45;;;;;;;12.80;9.50;;;3.20;99.90;;;;;;5054321;28;20643;-48
2022/11/22 07:55:12;;;;;;;12.40;11.20;;;3.00;99.90;;;;;;5053640;28;20573;-49
2022/11/22 07:57:39;;;;;;;10.10;9.10;;;3.00;99.90;;;;;;5053643;28;20897;-48
2022/11/22 08:00:07;;;;;;;10.27;8.83;;;3.00;99.90;;;;;;5054279;28;20737;-48
2022/11/22 08:02:36;;;;;;;9.37;8.57;;;3.00;99.90;;;;;;5053879;28;20453;-48
2022/11/22 08:05:06;;;;;;;8.77;7.87;;;2.90;99.90;;;;;;5053646;28;20791;-50
2022/11/22 08:07:33;;;;;;;9.80;8.80;;;2.90;99.90;;;;;;5053999;28;20810;-48
2022/11/22 08:10:00;;;;;;;9.37;8.37;;;2.90;99.90;;;;;;5053502;28;20464;-48
2022/11/22 08:12:26;;;;;;;9.97;8.90;;;2.90;99.90;;;;;;5053837;28;20457;-48
2022/11/22 08:14:53;;;;;;;9.80;8.73;;;2.90;99.90;;;;;;5053104;28;20943;-49
2022/11/22 08:17:20;;;;;;;10.87;8.57;;;2.90;99.90;;;;;;5053745;28;20469;-48
2022/11/22 08:19:48;;;;;;;14.23;9.77;;;2.80;99.90;;;;;;5053280;28;20907;-48
2022/11/22 08:22:16;;;;;;;10.97;9.30;;;2.80;99.90;;;;;;5053127;28;20871;-48
2022/11/22 08:24:43;;;;;;;11.23;10.13;;;2.80;99.90;;;;;;5053144;28;20452;-49
2022/11/22 08:27:10;;;;;;;12.20;10.97;;;2.80;99.90;;;;;;5053092;28;20442;-48
2022/11/22 08:29:36;;;;;;;12.20;11.00;;;2.80;99.90;;;;;;5054276;28;20485;-48
2022/11/22 08:32:04;;;;;;;13.00;10.93;;;2.80;99.90;;;;;;5053139;28;20449;-48
2022/11/22 08:34:30;;;;;;;13.20;11.80;;;2.70;99.90;;;;;;5052740;28;21014;-50
2022/11/22 08:36:57;;;;;;;11.80;10.47;;;2.70;99.90;;;;;;5053307;28;20473;-48
2022/11/22 08:39:26;;;;;;;11.17;10.07;;;2.80;99.90;;;;;;5053091;28;20461;-48
2022/11/22 08:41:53;;;;;;;13.67;11.63;;;2.70;99.90;;;;;;5053130;28;20504;-51
2022/11/22 08:44:19;;;;;;;12.47;10.93;;;2.70;99.90;;;;;;5053285;28;20446;-50
2022/11/22 08:46:46;;;;;;;12.27;10.97;;;2.70;99.90;;;;;;5053040;28;20453;-48
2022/11/22 08:49:13;;;;;;;13.50;10.60;;;2.60;99.90;;;;;;5052982;28;20462;-48
2022/11/22 08:51:43;;;;;;;12.30;11.10;;;2.50;99.90;;;;;;5052521;28;20438;-49
2022/11/22 08:54:11;;;;;;;14.57;12.17;;;2.50;99.90;;;;;;5052657;28;20886;-48
2022/11/22 08:56:39;;;;;;;13.90;12.00;;;2.60;99.90;;;;;;5052745;28;20473;-48
2022/11/22 08:59:06;;;;;;;13.17;11.77;;;2.50;99.90;;;;;;5052768;28;20549;-48
2022/11/22 09:01:33;;;;;;;13.30;12.00;;;2.50;99.90;;;;;;5052736;28;20978;-48
2022/11/22 09:04:00;;;;;;;13.37;11.43;;;2.40;99.90;;;;;;5052568;28;20880;-48
2022/11/22 09:06:27;;;;;;;12.83;11.57;;;2.30;99.90;;;;;;5052651;28;20533;-48
2022/11/22 09:08:53;;;;;;;12.17;10.43;;;2.30;99.90;;;;;;5052641;28;20468;-49
2022/11/22 09:11:20;;;;;;;16.27;12.33;;;2.30;99.90;;;;;;5052295;28;20528;-48
2022/11/22 09:13:48;;;;;;;16.10;14.53;;;2.50;99.90;;;;;;5052084;28;20442;-49
2022/11/22 09:16:17;;;;;;;16.20;13.03;;;2.50;99.90;;;;;;5052668;28;20866;-48
2022/11/22 09:18:44;;;;;;;17.83;15.77;;;2.50;99.90;;;;;;5050914;28;20494;-49
2022/11/22 09:21:14;;;;;;;19.93;15.70;;;2.40;99.90;;;;;;5052772;28;20817;-51
2022/11/22 09:23:42;;;;;;;15.17;13.63;;;2.30;99.90;;;;;;5051936;28;20511;-48
2022/11/22 09:26:10;;;;;;;16.03;14.43;;;2.40;99.90;;;;;;5052061;28;20538;-50
2022/11/22 09:28:37;;;;;;;19.47;17.07;;;2.50;99.90;;;;;;5051363;28;20475;-48
2022/11/22 09:31:07;;;;;;;17.30;15.50;;;2.60;99.90;;;;;;5052140;28;20442;-49
2022/11/22 09:33:35;;;;;;;16.67;14.67;;;2.90;99.90;;;;;;5051697;28;20438;-51
2022/11/22 09:36:04;;;;;;;15.47;13.00;;;2.80;99.90;;;;;;5052157;28;20474;-49
2022/11/22 09:38:32;;;;;;;16.07;13.33;;;2.80;99.90;;;;;;5051998;28;20553;-48
2022/11/22 09:41:01;;;;;;;17.70;15.83;;;2.70;99.90;;;;;;5051871;28;20545;-50
2022/11/22 09:43:40;;;;;;;20.63;17.10;;;2.70;99.90;;;;;;5050947;28;20870;-48
2022/11/22 09:46:23;;;;;;;19.63;17.27;;;2.70;99.90;;;;;;5052076;28;20446;-50
2022/11/22 09:49:12;;;;;;;16.67;14.87;;;2.50;99.90;;;;;;5052063;28;20463;-49
2022/11/22 09:51:46;;;;;;;16.03;14.10;;;2.60;99.90;;;;;;5051573;28;20568;-51
2022/11/22 09:54:18;;;;;;;14.93;13.47;;;2.70;99.90;;;;;;5051417;28;21005;-48
2022/11/22 09:56:46;;;;;;;15.00;12.87;;;2.80;99.90;;;;;;5051970;28;20966;-48
2022/11/22 09:59:18;;;;;;;19.07;14.77;;;2.70;99.90;;;;;;5051620;28;20546;-48
2022/11/22 10:01:51;;;;;;;18.23;15.67;;;2.70;99.90;;;;;;5051914;28;20857;-49
2022/11/22 10:04:24;;;;;;;16.97;14.70;;;2.70;99.90;;;;;;5050689;28;20528;-49
2022/11/22 10:06:54;;;;;;;17.90;14.63;;;3.10;99.90;;;;;;5051624;28;20481;-48
2022/11/22 10:09:33;;;;;;;15.30;13.50;;;3.30;99.90;;;;;;5051522;28;20573;-48
2022/11/22 10:12:04;;;;;;;18.33;16.53;;;3.10;99.90;;;;;;5051515;28;20441;-47
2022/11/22 10:14:40;;;;;;;16.17;14.50;;;2.90;99.90;;;;;;5050807;28;20880;-48
2022/11/22 10:17:20;;;;;;;17.10;15.30;;;2.90;99.90;;;;;;5051493;28;20478;-46
2022/11/22 10:19:59;;;;;;;17.23;15.37;;;2.60;99.90;;;;;;5051911;28;20551;-47
2022/11/22 10:22:29;;;;;;;17.40;15.73;;;2.70;99.90;;;;;;5055632;28;20534;-44
2022/11/22 10:24:59;;;;;;;17.10;15.03;;;2.60;99.90;;;;;;5051123;28;20476;-46
2022/11/22 10:27:31;;;;;;;19.27;16.93;;;2.40;99.90;;;;;;5050636;28;20445;-49
2022/11/22 10:30:02;;;;;;;20.10;18.03;;;2.20;99.90;;;;;;5051256;28;20490;-47
2022/11/22 10:32:37;;;;;;;19.47;17.47;;;2.30;99.90;;;;;;5051274;28;20488;-48
2022/11/22 10:35:21;;;;;;;19.07;17.30;;;2.40;99.90;;;;;;5050757;28;20540;-49
2022/11/22 10:37:58;;;;;;;28.03;24.93;;;2.50;99.90;;;;;;5051282;28;20477;-46
2022/11/22 10:40:35;;;;;;;33.57;26.47;;;2.50;99.90;;;;;;5050949;28;20874;-48
2022/11/22 10:43:16;;;;;;;23.80;21.10;;;2.50;99.90;;;;;;5051106;28;20959;-45
2022/11/22 10:45:47;;;;;;;19.03;16.73;;;2.50;99.90;;;;;;5049839;28;20536;-45
2022/11/22 10:48:24;;;;;;;17.77;15.87;;;2.40;99.90;;;;;;5062584;28;20447;-47
2022/11/22 10:50:59;;;;;;;20.47;16.50;;;2.20;99.90;;;;;;5070936;28;20447;-46
2022/11/22 10:53:37;;;;;;;21.63;17.80;;;2.30;99.90;;;;;;5050181;28;20461;-44
2022/11/22 10:56:11;;;;;;;17.77;14.50;;;2.40;99.90;;;;;;5049360;28;20819;-48
2022/11/22 10:58:53;;;;;;;17.30;15.40;;;2.50;99.90;;;;;;5050884;28;20460;-47
2022/11/22 11:01:27;;;;;;;15.67;14.03;;;2.50;99.90;;;;;;5046653;28;20443;-47
2022/11/22 11:03:59;;;;;;;16.70;15.10;;;2.40;99.90;;;;;;5047998;28;20435;-48
2022/11/22 11:06:33;;;;;;;15.87;14.27;;;2.40;99.90;;;;;;5050336;28;20432;-47
2022/11/22 11:09:04;;;;;;;21.47;19.17;;;2.40;99.90;;;;;;5050142;28;20461;-49
2022/11/22 11:11:31;;;;;;;26.03;20.43;;;2.40;99.90;;;;;;5049896;28;20469;-47
2022/11/22 11:14:03;;;;;;;19.93;17.87;;;2.50;99.90;;;;;;5050548;28;20800;-46
2022/11/22 11:16:34;;;;;;;18.17;16.27;;;2.50;99.90;;;;;;5054314;28;20967;-46
2022/11/22 11:19:14;;;;;;;18.37;16.47;;;2.50;99.90;;;;;;5054428;28;20465;-47
2022/11/22 11:21:40;;;;;;;18.50;14.90;;;2.40;99.90;;;;;;5054730;28;20817;-47
2022/11/22 11:24:14;;;;;;;18.73;16.77;;;2.50;99.90;;;;;;5053554;28;20840;-49
2022/11/22 11:26:44;;;;;;;18.70;16.70;;;2.40;99.90;;;;;;5054556;28;20938;-47
2022/11/22 11:29:34;;;;;;;19.33;15.97;;;2.40;99.90;;;;;;5054015;28;20524;-47
2022/11/22 11:32:12;;;;;;;18.33;16.43;;;2.40;99.90;;;;;;5054469;28;20442;-47
2022/11/22 11:34:47;;;;;;;23.80;19.87;;;2.40;99.90;;;;;;5052850;28;20437;-47
2022/11/22 11:37:23;;;;;;;15.50;13.00;;;2.40;99.90;;;;;;5052681;28;20555;-49
2022/11/22 11:39:50;;;;;;;14.37;12.97;;;2.10;99.90;;;;;;5052763;28;20544;-47
2022/11/22 11:42:28;;;;;;;15.27;13.70;;;1.80;99.90;;;;;;5053903;28;20437;-47
2022/11/22 11:45:20;;;;;;;13.87;12.67;;;1.60;99.90;;;;;;5053371;28;20532;-46
2022/11/22 11:47:47;;;;;;;15.43;13.93;;;1.90;99.90;;;;;;5034532;28;20454;-48
2022/11/22 11:50:19;;;;;;;16.30;14.87;;;1.80;99.90;;;;;;5040312;28;20552;-46
2022/11/22 11:52:51;;;;;;;19.23;15.83;;;1.70;99.90;;;;;;5052461;28;20438;-47
2022/11/22 11:55:19;;;;;;;17.03;14.40;;;1.80;99.90;;;;;;5051198;28;20491;-48
2022/11/22 11:57:48;;;;;;;20.33;16.10;;;1.90;99.90;;;;;;5052653;28;20480;-49
2022/11/22 12:00:24;;;;;;;15.17;13.30;;;1.90;99.90;;;;;;5053361;28;21049;-47
2022/11/22 12:02:57;;;;;;;12.97;11.60;;;1.80;99.90;;;;;;5052587;28;20473;-43
2022/11/22 12:05:30;;;;;;;14.70;12.80;;;1.90;99.90;;;;;;5050245;28;20492;-46
2022/11/22 12:07:58;;;;;;;14.57;11.60;;;1.90;99.90;;;;;;5048314;28;20444;-48
2022/11/22 12:10:31;;;;;;;10.57;9.47;;;1.90;99.90;;;;;;5050627;28;20480;-47
2022/11/22 12:13:01;;;;;;;8.40;7.37;;;1.70;99.90;;;;;;5048263;28;20434;-48
2022/11/22 12:15:39;;;;;;;8.10;7.40;;;1.60;99.90;;;;;;5049956;28;20442;-47
2022/11/22 12:18:22;;;;;;;9.77;8.87;;;1.40;99.90;;;;;;5050216;28;20479;-48
2022/11/22 12:20:56;;;;;;;10.13;7.63;;;1.40;99.90;;;;;;5050303;28;20444;-48
2022/11/22 12:23:29;;;;;;;9.30;8.30;;;1.60;99.90;;;;;;5050557;28;20534;-46
2022/11/22 12:25:58;;;;;;;8.87;7.87;;;1.80;99.90;;;;;;5051871;28;20869;-48
2022/11/22 12:28:27;;;;;;;7.82;7.03;;;2.00;99.90;;;;;;5052787;28;20450;-46
2022/11/22 12:30:59;;;;;;;7.43;6.67;;;2.20;99.90;;;;;;5053268;28;20286;-47
2022/11/22 12:33:32;;;;;;;7.57;6.37;;;2.40;99.90;;;;;;5052965;28;20533;-48
2022/11/22 12:36:02;;;;;;;6.50;5.90;;;2.40;99.90;;;;;;5053588;28;20496;-47
2022/11/22 12:38:33;;;;;;;6.27;5.67;;;2.50;99.90;;;;;;5053312;28;20569;-46
2022/11/22 12:41:03;;;;;;;8.17;7.47;;;2.60;99.90;;;;;;5053472;28;20525;-46
2022/11/22 12:43:37;;;;;;;11.90;10.00;;;2.70;99.90;;;;;;5052748;28;20446;-46
2022/11/22 12:46:09;;;;;;;16.93;13.20;;;2.70;99.90;;;;;;5052965;28;20434;-44
2022/11/22 12:48:43;;;;;;;17.27;15.57;;;2.80;99.90;;;;;;5053188;28;20462;-47
2022/11/22 12:51:17;;;;;;;16.90;14.90;;;2.70;99.90;;;;;;5052877;28;20525;-46
2022/11/22 12:53:46;;;;;;;15.20;13.60;;;2.70;99.90;;;;;;5052617;28;20445;-47
2022/11/22 12:56:21;;;;;;;16.70;15.10;;;2.80;99.90;;;;;;5052420;28;20536;-47
2022/11/22 12:58:54;;;;;;;17.70;15.60;;;2.90;99.90;;;;;;5052057;28;20538;-47
2022/11/22 13:01:25;;;;;;;12.63;11.40;;;2.90;99.90;;;;;;5051238;28;20450;-47
2022/11/22 13:03:59;;;;;;;15.37;13.87;;;2.80;99.90;;;;;;5051008;28;20438;-47
2022/11/22 13:06:33;;;;;;;14.50;12.97;;;2.70;99.90;;;;;;5052088;28;20437;-47
2022/11/22 13:09:03;;;;;;;11.50;9.50;;;2.80;99.90;;;;;;5052116;28;20958;-47
2022/11/22 13:11:34;;;;;;;9.63;8.73;;;2.80;99.90;;;;;;5052180;28;20529;-48
2022/11/22 13:14:06;;;;;;;11.10;10.00;;;2.80;99.90;;;;;;5052296;28;20446;-47